Time;durP1;ratioP1;P1;durP2;ratioP2;P2;SDS_P1;SDS_P2;PMS_P1;PMS_P2;Temp;Humidity;BMP_temperature;BMP_pressure;BME280_temperature;BME280_humidity;BME280_pressure;Samples;Min_cycle;Max_cycle;Signal;HPM_P1;HPM_P2
2022/10/10 00:01:49;;;;;;;;;;;;;;;;;;5121431;27;20006;-45
2022/10/10 00:04:15;;;;;;;;;;;;;;;;;;5123714;27;20371;-43
2022/10/10 00:06:41;;;;;;;;;;;;;;;;;;5134041;27;19919;-42
2022/10/10 00:09:07;;;;;;;;;;;;;;;;;;5133271;27;20006;-42
2022/10/10 00:11:33;;;;;;;;;;;;;;;;;;5133632;27;20310;-42
2022/10/10 00:13:59;;;;;;;;;;;;;;;;;;5125463;27;19912;-48
2022/10/10 00:16:25;;;;;;;;;;;;;;;;;;5132438;27;19938;-44
2022/10/10 00:18:51;;;;;;;;;;;;;;;;;;5124955;27;19912;-43
2022/10/10 00:21:17;;;;;;;;;;;;;;;;;;5134059;27;19912;-43
2022/10/10 00:23:42;;;;;;;;;;;;;;;;;;5137904;27;19934;-43
2022/10/10 00:26:08;;;;;;;;;;;;;;;;;;5134366;27;19923;-43
2022/10/10 00:28:37;;;;;;;;;;;;;;;;;;5137234;27;19972;-42
2022/10/10 00:31:03;;;;;;;;;;;;;;;;;;5115298;27;19941;-44
2022/10/10 00:33:28;;;;;;;;;;;;;;;;;;5133082;27;19964;-42
2022/10/10 00:35:54;;;;;;;;;;;;;;;;;;5128068;27;19947;-42
2022/10/10 00:38:20;;;;;;;;;;;;;;;;;;5138297;27;20143;-43
2022/10/10 00:40:46;;;;;;;;;;;;;;;;;;5133680;27;19961;-43
2022/10/10 00:43:12;;;;;;;;;;;;;;;;;;5131964;28;19908;-42
2022/10/10 00:45:38;;;;;;;;;;;;;;;;;;5127490;27;20368;-42
2022/10/10 00:48:04;;;;;;;;;;;;;;;;;;5123634;27;20002;-42
2022/10/10 00:50:29;;;;;;;;;;;;;;;;;;5132379;28;19911;-43
2022/10/10 00:52:55;;;;;;;;;;;;;;;;;;5127105;27;19911;-42
2022/10/10 00:55:21;;;;;;;;;;;;;;;;;;5130134;28;19919;-43
2022/10/10 00:57:47;;;;;;;;;;;;;;;;;;5133282;28;19907;-44
2022/10/10 01:00:13;;;;;;;;;;;;;;;;;;5131316;27;19912;-42
2022/10/10 01:02:39;;;;;;;;;;;;;;;;;;5133606;27;19963;-42
2022/10/10 01:05:05;;;;;;;;;;;;;;;;;;5133149;27;19923;-42
2022/10/10 01:07:31;;;;;;;;;;;;;;;;;;5139844;27;20390;-42
2022/10/10 01:09:56;;;;;;;;;;;;;;;;;;5138705;27;19911;-45
2022/10/10 01:12:22;;;;;;;;;;;;;;;;;;5135528;27;19941;-43
2022/10/10 01:14:48;;;;;;;;;;;;;;;;;;5136530;27;19942;-46
2022/10/10 01:17:14;;;;;;;;;;;;;;;;;;5135382;27;20083;-44
2022/10/10 01:19:40;;;;;;;;;;;;;;;;;;5138972;27;21280;-44
2022/10/10 01:22:06;;;;;;;;;;;;;;;;;;5129605;27;19912;-45
2022/10/10 01:24:32;;;;;;;;;;;;;;;;;;5140385;27;19918;-49
2022/10/10 01:26:58;;;;;;;;;;;;;;;;;;5142064;27;19965;-48
2022/10/10 01:29:23;;;;;;;;;;;;;;;;;;5128340;27;19907;-45
2022/10/10 01:31:49;;;;;;;;;;;;;;;;;;5135466;27;19908;-42
2022/10/10 01:34:15;;;;;;;;;;;;;;;;;;5135049;27;19908;-43
2022/10/10 01:36:41;;;;;;;;;;;;;;;;;;5125346;27;19958;-42
2022/10/10 01:39:07;;;;;;;;;;;;;;;;;;5133073;27;19908;-42
2022/10/10 01:41:33;;;;;;;;;;;;;;;;;;5135283;27;19907;-44
2022/10/10 01:43:59;;;;;;;;;;;;;;;;;;5129117;27;19911;-50
2022/10/10 01:46:24;;;;;;;;;;;;;;;;;;5128214;27;19945;-42
2022/10/10 01:48:50;;;;;;;;;;;;;;;;;;5128752;27;19918;-42
2022/10/10 01:51:16;;;;;;;;;;;;;;;;;;5122599;27;20334;-41
2022/10/10 01:53:42;;;;;;;;;;;;;;;;;;5133849;27;19908;-41
2022/10/10 01:56:08;;;;;;;;;;;;;;;;;;5130989;27;19911;-42
2022/10/10 01:58:34;;;;;;;;;;;;;;;;;;5133735;27;19907;-42
2022/10/10 02:01:00;;;;;;;;;;;;;;;;;;5118634;27;19918;-48
2022/10/10 02:03:26;;;;;;;;;;;;;;;;;;5134253;27;19920;-42
2022/10/10 02:05:51;;;;;;;;;;;;;;;;;;5134171;27;19958;-42
2022/10/10 02:08:18;;;;;;;;;;;;;;;;;;5131724;27;19911;-42
2022/10/10 02:10:44;;;;;;;;;;;;;;;;;;5136400;27;19911;-42
2022/10/10 02:13:10;;;;;;;;;;;;;;;;;;5115763;27;19915;-45
2022/10/10 02:15:35;;;;;;;;;;;;;;;;;;5126736;27;19990;-42
2022/10/10 02:18:01;;;;;;;;;;;;;;;;;;5133431;27;19998;-47
2022/10/10 02:20:27;;;;;;;;;;;;;;;;;;5134498;27;20370;-42
2022/10/10 02:22:53;;;;;;;;;;;;;;;;;;5143273;27;19908;-42
2022/10/10 02:25:19;;;;;;;;;;;;;;;;;;5131965;27;19926;-42
2022/10/10 02:27:45;;;;;;;;;;;;;;;;;;5130528;27;20006;-42
2022/10/10 02:30:11;;;;;;;;;;;;;;;;;;5124746;27;19919;-42
2022/10/10 02:32:37;;;;;;;;;;;;;;;;;;5129730;27;20009;-42
2022/10/10 02:35:03;;;;;;;;;;;;;;;;;;5125656;27;19907;-47
2022/10/10 02:37:29;;;;;;;;;;;;;;;;;;5134845;27;19954;-42
2022/10/10 02:39:55;;;;;;;;;;;;;;;;;;5133355;27;20326;-44
2022/10/10 02:42:21;;;;;;;;;;;;;;;;;;5133322;27;19964;-42
2022/10/10 02:44:47;;;;;;;;;;;;;;;;;;5134717;27;19911;-43
2022/10/10 02:47:13;;;;;;;;;;;;;;;;;;5130685;27;19908;-45
2022/10/10 02:49:39;;;;;;;;;;;;;;;;;;5126935;27;19919;-42
2022/10/10 02:52:04;;;;;;;;;;;;;;;;;;5133384;27;19962;-43
2022/10/10 02:54:30;;;;;;;;;;;;;;;;;;5134708;27;19911;-42
2022/10/10 02:56:56;;;;;;;;;;;;;;;;;;5132409;27;20261;-42
2022/10/10 02:59:22;;;;;;;;;;;;;;;;;;5134128;27;19919;-42
2022/10/10 03:01:48;;;;;;;;;;;;;;;;;;5139506;27;19914;-42
2022/10/10 03:04:14;;;;;;;;;;;;;;;;;;5122454;27;20028;-42
2022/10/10 03:06:40;;;;;;;;;;;;;;;;;;5125671;27;19941;-42
2022/10/10 03:09:06;;;;;;;;;;;;;;;;;;5133844;27;20065;-42
2022/10/10 03:11:32;;;;;;;;;;;;;;;;;;5134824;27;19923;-42
2022/10/10 03:13:57;;;;;;;;;;;;;;;;;;5115701;27;19968;-42
2022/10/10 03:16:23;;;;;;;;;;;;;;;;;;5132827;27;19911;-42
2022/10/10 03:18:49;;;;;;;;;;;;;;;;;;5132968;27;19920;-42
2022/10/10 03:21:15;;;;;;;;;;;;;;;;;;5134414;27;20010;-42
2022/10/10 03:23:41;;;;;;;;;;;;;;;;;;5130679;27;20075;-42
2022/10/10 03:26:07;;;;;;;;;;;;;;;;;;5113876;27;19969;-42
2022/10/10 03:28:33;;;;;;;;;;;;;;;;;;5136648;27;20002;-42
2022/10/10 03:30:58;;;;;;;;;;;;;;;;;;5123038;27;19911;-47
2022/10/10 03:33:24;;;;;;;;;;;;;;;;;;5129580;27;19962;-42
2022/10/10 03:35:50;;;;;;;;;;;;;;;;;;5131240;27;20405;-43
2022/10/10 03:38:16;;;;;;;;;;;;;;;;;;5124060;27;19971;-42
2022/10/10 03:40:42;;;;;;;;;;;;;;;;;;5131120;27;20384;-43
2022/10/10 03:43:08;;;;;;;;;;;;;;;;;;5125392;27;19912;-43
2022/10/10 03:45:34;;;;;;;;;;;;;;;;;;5131279;27;20280;-42
2022/10/10 03:47:59;;;;;;;;;;;;;;;;;;5131949;27;19911;-48
2022/10/10 03:50:25;;;;;;;;;;;;;;;;;;5131821;27;19911;-42
2022/10/10 03:52:51;;;;;;;;;;;;;;;;;;5120597;27;19912;-43
2022/10/10 03:55:17;;;;;;;;;;;;;;;;;;5119215;27;19914;-42
2022/10/10 03:57:43;;;;;;;;;;;;;;;;;;5131691;27;20388;-42
2022/10/10 04:00:09;;;;;;;;;;;;;;;;;;5129120;27;19919;-44
2022/10/10 04:02:35;;;;;;;;;;;;;;;;;;5131873;27;20010;-44
2022/10/10 04:05:00;;;;;;;;;;;;;;;;;;5131100;27;19920;-49
2022/10/10 04:07:27;;;;;;;;;;;;;;;;;;5123089;27;20399;-42
2022/10/10 04:09:53;;;;;;;;;;;;;;;;;;5122831;27;19919;-42
2022/10/10 04:12:19;;;;;;;;;;;;;;;;;;5119731;27;19918;-43
2022/10/10 04:14:45;;;;;;;;;;;;;;;;;;5114821;28;20618;-42
2022/10/10 04:17:11;;;;;;;;;;;;;;;;;;5132035;27;19937;-42
2022/10/10 04:19:37;;;;;;;;;;;;;;;;;;5134676;27;20356;-42
2022/10/10 04:22:03;;;;;;;;;;;;;;;;;;5124011;27;19911;-49
2022/10/10 04:24:29;;;;;;;;;;;;;;;;;;5131277;28;19911;-42
2022/10/10 04:26:55;;;;;;;;;;;;;;;;;;5125070;27;20291;-42
2022/10/10 04:29:20;;;;;;;;;;;;;;;;;;5131808;28;19950;-43
2022/10/10 04:31:46;;;;;;;;;;;;;;;;;;5132118;28;19911;-44
2022/10/10 04:34:13;;;;;;;;;;;;;;;;;;5118870;28;19908;-43
2022/10/10 04:36:39;;;;;;;;;;;;;;;;;;5130752;28;19911;-44
2022/10/10 04:39:05;;;;;;;;;;;;;;;;;;5135538;27;19971;-42
2022/10/10 04:41:31;;;;;;;;;;;;;;;;;;5134943;27;19912;-46
2022/10/10 04:43:57;;;;;;;;;;;;;;;;;;5122574;27;19916;-44
2022/10/10 04:46:23;;;;;;;;;;;;;;;;;;5124832;27;20374;-43
2022/10/10 04:48:49;;;;;;;;;;;;;;;;;;5136452;27;19915;-43
2022/10/10 04:51:14;;;;;;;;;;;;;;;;;;5131383;27;19915;-43
2022/10/10 04:53:40;;;;;;;;;;;;;;;;;;5118181;27;19992;-43
2022/10/10 04:56:06;;;;;;;;;;;;;;;;;;5120412;27;19912;-44
2022/10/10 04:58:32;;;;;;;;;;;;;;;;;;5134034;27;20376;-43
2022/10/10 05:00:58;;;;;;;;;;;;;;;;;;5133680;27;19922;-46
2022/10/10 05:03:24;;;;;;;;;;;;;;;;;;5136203;27;19911;-42
2022/10/10 05:05:50;;;;;;;;;;;;;;;;;;5133238;27;20423;-44
2022/10/10 05:08:17;;;;;;;;;;;;;;;;;;5130307;27;19957;-43
2022/10/10 05:10:43;;;;;;;;;;;;;;;;;;5133729;27;19915;-43
2022/10/10 05:13:08;;;;;;;;;;;;;;;;;;5130812;27;19914;-44
2022/10/10 05:15:34;;;;;;;;;;;;;;;;;;5131793;27;19915;-43
2022/10/10 05:18:00;;;;;;;;;;;;;;;;;;5132556;27;20317;-50
2022/10/10 05:20:26;;;;;;;;;;;;;;;;;;5137859;27;19907;-43
2022/10/10 05:22:52;;;;;;;;;;;;;;;;;;5134672;27;19907;-46
2022/10/10 05:25:18;;;;;;;;;;;;;;;;;;5133238;27;20130;-44
2022/10/10 05:27:44;;;;;;;;;;;;;;;;;;5128102;27;19922;-45
2022/10/10 05:30:10;;;;;;;;;;;;;;;;;;5126235;27;20632;-43
2022/10/10 05:32:36;;;;;;;;;;;;;;;;;;5135956;27;19907;-46
2022/10/10 05:35:03;;;;;;;;;;;;;;;;;;5134544;27;19908;-48
2022/10/10 05:37:28;;;;;;;;;;;;;;;;;;5126826;27;19911;-46
2022/10/10 05:39:54;;;;;;;;;;;;;;;;;;5135638;27;19918;-45
2022/10/10 05:42:20;;;;;;;;;;;;;;;;;;5146445;27;20466;-44
2022/10/10 05:44:46;;;;;;;;;;;;;;;;;;5144170;27;19915;-44
2022/10/10 05:47:12;;;;;;;;;;;;;;;;;;5135596;27;20382;-44
2022/10/10 05:49:38;;;;;;;;;;;;;;;;;;5134759;27;19986;-46
2022/10/10 05:52:04;;;;;;;;;;;;;;;;;;5129470;27;20369;-43
2022/10/10 05:54:30;;;;;;;;;;;;;;;;;;5115471;27;19915;-44
2022/10/10 05:56:55;;;;;;;;;;;;;;;;;;5123812;27;19916;-44
2022/10/10 05:59:21;;;;;;;;;;;;;;;;;;5134390;27;19907;-44
2022/10/10 06:01:47;;;;;;;;;;;;;;;;;;5123494;27;19939;-45
2022/10/10 06:04:13;;;;;;;;;;;;;;;;;;5134236;27;19964;-44
2022/10/10 06:06:39;;;;;;;;;;;;;;;;;;5134479;27;19926;-44
2022/10/10 06:09:05;;;;;;;;;;;;;;;;;;5128447;27;19912;-44
2022/10/10 06:11:31;;;;;;;;;;;;;;;;;;5129235;27;20269;-43
2022/10/10 06:13:57;;;;;;;;;;;;;;;;;;5134637;27;19997;-48
2022/10/10 06:16:23;;;;;;;;;;;;;;;;;;5126079;27;20375;-46
2022/10/10 06:18:49;;;;;;;;;;;;;;;;;;5139747;27;20432;-45
2022/10/10 06:21:15;;;;;;;;;;;;;;;;;;5129906;27;19944;-46
2022/10/10 06:23:40;;;;;;;;;;;;;;;;;;5124928;27;20383;-46
2022/10/10 06:26:06;;;;;;;;;;;;;;;;;;5125935;27;19919;-52
2022/10/10 06:28:33;;;;;;;;;;;;;;;;;;5133915;27;19919;-52
2022/10/10 06:30:59;;;;;;;;;;;;;;;;;;5128943;27;19934;-59
2022/10/10 06:33:25;;;;;;;;;;;;;;;;;;5136528;27;19988;-51
2022/10/10 06:35:51;;;;;;;;;;;;;;;;;;5127822;27;19915;-51
2022/10/10 06:38:17;;;;;;;;;;;;;;;;;;5130907;27;19926;-53
2022/10/10 06:40:43;;;;;;;;;;;;;;;;;;5127608;27;19956;-50
2022/10/10 06:43:10;;;;;;;;;;;;;;;;;;5133689;27;19912;-49
2022/10/10 06:45:36;;;;;;;;;;;;;;;;;;5123552;27;19934;-52
2022/10/10 06:48:02;;;;;;;;;;;;;;;;;;5132681;27;19994;-56
2022/10/10 06:50:29;;;;;;;;;;;;;;;;;;5133253;27;20326;-51
2022/10/10 06:52:54;;;;;;;;;;;;;;;;;;5127256;27;19916;-49
2022/10/10 06:55:20;;;;;;;;;;;;;;;;;;5127302;27;19999;-51
2022/10/10 06:57:46;;;;;;;;;;;;;;;;;;5124104;27;19918;-52
2022/10/10 07:00:12;;;;;;;;;;;;;;;;;;5130456;27;20378;-52
2022/10/10 07:02:39;;;;;;;;;;;;;;;;;;5136350;27;19922;-49
2022/10/10 07:05:05;;;;;;;;;;;;;;;;;;5121703;27;19927;-51
2022/10/10 07:07:31;;;;;;;;;;;;;;;;;;5125385;27;19915;-53
2022/10/10 07:09:57;;;;;;;;;;;;;;;;;;5120845;27;20002;-53
2022/10/10 07:12:23;;;;;;;;;;;;;;;;;;5132894;27;19912;-49
2022/10/10 07:14:49;;;;;;;;;;;;;;;;;;5131602;27;19972;-51
2022/10/10 07:17:14;;;;;;;;;;;;;;;;;;5100628;28;20419;-52
2022/10/10 07:19:40;;;;;;;;;;;;;;;;;;5106043;27;19926;-52
2022/10/10 07:22:06;;;;;;;;;;;;;;;;;;5129236;27;19927;-53
2022/10/10 07:24:32;;;;;;;;;;;;;;;;;;5122690;27;19954;-52
2022/10/10 07:26:58;;;;;;;;;;;;;;;;;;5125338;27;19916;-53
2022/10/10 07:29:24;;;;;;;;;;;;;;;;;;5135500;27;19919;-51
2022/10/10 07:31:50;;;;;;;;;;;;;;;;;;5127501;27;20373;-52
2022/10/10 07:34:16;;;;;;;;;;;;;;;;;;5127653;27;19915;-52
2022/10/10 07:36:45;;;;;;;;;;;;;;;;;;5124440;27;20073;-52
2022/10/10 07:39:11;;;;;;;;;;;;;;;;;;5123409;27;19942;-52
2022/10/10 07:41:37;;;;;;;;;;;;;;;;;;5131466;27;19912;-52
2022/10/10 07:44:03;;;;;;;;;;;;;;;;;;5123683;27;19915;-54
2022/10/10 07:46:31;;;;;;;;;;;;;;;;;;5123602;27;20010;-48
2022/10/10 07:48:57;;;;;;;;;;;;;;;;;;5135183;27;19923;-50
2022/10/10 07:51:23;;;;;;;;;;;;;;;;;;5114833;27;19919;-51
2022/10/10 07:53:49;;;;;;;;;;;;;;;;;;5125059;27;19907;-48
2022/10/10 07:56:14;;;;;;;;;;;;;;;;;;5124350;27;20383;-53
2022/10/10 07:58:40;;;;;;;;;;;;;;;;;;5121214;27;19912;-51
2022/10/10 08:01:06;;;;;;;;;;;;;;;;;;5125823;27;19927;-49
2022/10/10 08:03:32;;;;;;;;;;;;;;;;;;5128232;27;19923;-52
2022/10/10 08:05:58;;;;;;;;;;;;;;;;;;5138321;27;19926;-52
2022/10/10 08:08:24;;;;;;;;;;;;;;;;;;5124471;27;20281;-48
2022/10/10 08:10:50;;;;;;;;;;;;;;;;;;5124454;27;20352;-48
2022/10/10 08:13:16;;;;;;;;;;;;;;;;;;5130507;27;19908;-53
2022/10/10 08:15:42;;;;;;;;;;;;;;;;;;5129939;27;19911;-50
2022/10/10 08:18:07;;;;;;;;;;;;;;;;;;5126175;27;20379;-54
2022/10/10 08:20:33;;;;;;;;;;;;;;;;;;5124305;27;19915;-53
2022/10/10 08:22:59;;;;;;;;;;;;;;;;;;5122649;27;20382;-58
2022/10/10 08:25:25;;;;;;;;;;;;;;;;;;5130097;27;19923;-50
2022/10/10 08:27:51;;;;;;;;;;;;;;;;;;5123979;28;20380;-49
2022/10/10 08:30:17;;;;;;;;;;;;;;;;;;5125024;28;20386;-52
2022/10/10 08:32:43;;;;;;;;;;;;;;;;;;5131241;28;19908;-53
2022/10/10 08:35:09;;;;;;;;;;;;;;;;;;5130658;27;19994;-51
2022/10/10 08:37:35;;;;;;;;;;;;;;;;;;5131722;28;19921;-49
2022/10/10 08:40:01;;;;;;;;;;;;;;;;;;5123932;28;19956;-59
2022/10/10 08:42:26;;;;;;;;;;;;;;;;;;5121517;27;19912;-52
2022/10/10 08:44:52;;;;;;;;;;;;;;;;;;5134749;27;19911;-53
2022/10/10 08:47:18;;;;;;;;;;;;;;;;;;5113875;28;19927;-52
2022/10/10 08:49:44;;;;;;;;;;;;;;;;;;5132224;28;20362;-53
2022/10/10 08:52:10;;;;;;;;;;;;;;;;;;5130279;28;19953;-49
2022/10/10 08:54:36;;;;;;;;;;;;;;;;;;5126419;28;19930;-49
2022/10/10 08:57:02;;;;;;;;;;;;;;;;;;5130806;28;19913;-57
2022/10/10 08:59:28;;;;;;;;;;;;;;;;;;5124527;28;19912;-49
2022/10/10 09:01:53;;;;;;;;;;;;;;;;;;5131944;28;20257;-49
2022/10/10 09:04:19;;;;;;;;;;;;;;;;;;5130100;27;19919;-55
2022/10/10 09:06:45;;;;;;;;;;;;;;;;;;5130913;27;20010;-51
2022/10/10 09:09:11;;;;;;;;;;;;;;;;;;5111276;28;19908;-50
2022/10/10 09:11:37;;;;;;;;;;;;;;;;;;5137671;27;19971;-49
2022/10/10 09:14:03;;;;;;;;;;;;;;;;;;5131374;28;20325;-55
2022/10/10 09:16:29;;;;;;;;;;;;;;;;;;5121289;27;19911;-50
2022/10/10 09:18:54;;;;;;;;;;;;;;;;;;5120085;27;20448;-51
2022/10/10 09:21:20;;;;;;;;;;;;;;;;;;5129032;27;19954;-47
2022/10/10 09:23:46;;;;;;;;;;;;;;;;;;5130668;27;19907;-50
2022/10/10 09:26:12;;;;;;;;;;;;;;;;;;5133727;27;19985;-50
2022/10/10 09:28:38;;;;;;;;;;;;;;;;;;5135724;27;19923;-51
2022/10/10 09:31:04;;;;;;;;;;;;;;;;;;5125429;27;19916;-48
2022/10/10 09:33:30;;;;;;;;;;;;;;;;;;5135366;27;19908;-51
2022/10/10 09:35:56;;;;;;;;;;;;;;;;;;5132576;27;19912;-53
2022/10/10 09:38:22;;;;;;;;;;;;;;;;;;5127907;27;19914;-48
2022/10/10 09:40:48;;;;;;;;;;;;;;;;;;5131156;27;19908;-47
2022/10/10 09:43:14;;;;;;;;;;;;;;;;;;5134246;27;19918;-49
2022/10/10 09:45:40;;;;;;;;;;;;;;;;;;5129255;27;19920;-48
2022/10/10 09:48:06;;;;;;;;;;;;;;;;;;5132328;27;20009;-48
2022/10/10 09:50:32;;;;;;;;;;;;;;;;;;5135634;27;19918;-47
2022/10/10 09:52:57;;;;;;;;;;;;;;;;;;5132355;27;19908;-48
2022/10/10 09:55:23;;;;;;;;;;;;;;;;;;5126757;27;19918;-50
2022/10/10 09:57:49;;;;;;;;;;;;;;;;;;5134109;27;19912;-49
2022/10/10 10:00:15;;;;;;;;;;;;;;;;;;5139398;27;19911;-50
2022/10/10 10:02:41;;;;;;;;;;;;;;;;;;5135107;27;19912;-50
2022/10/10 10:05:07;;;;;;;;;;;;;;;;;;5131483;27;20350;-48
2022/10/10 10:07:33;;;;;;;;;;;;;;;;;;5134998;27;19912;-48
2022/10/10 10:09:59;;;;;;;;;;;;;;;;;;5125065;27;19911;-57
2022/10/10 10:12:25;;;;;;;;;;;;;;;;;;5132685;27;20006;-51
2022/10/10 10:14:50;;;;;;;;;;;;;;;;;;5134345;27;20264;-51
2022/10/10 10:17:17;;;;;;;;;;;;;;;;;;5133028;27;20263;-49
2022/10/10 10:19:43;;;;;;;;;;;;;;;;;;5137720;27;19907;-48
2022/10/10 10:22:09;;;;;;;;;;;;;;;;;;5133886;27;19914;-46
2022/10/10 10:24:35;;;;;;;;;;;;;;;;;;5134846;27;19915;-46
2022/10/10 10:27:01;;;;;;;;;;;;;;;;;;5132804;27;19917;-57
2022/10/10 10:29:27;;;;;;;;;;;;;;;;;;5133336;27;19998;-53
2022/10/10 10:31:53;;;;;;;;;;;;;;;;;;5134995;27;19912;-54
2022/10/10 10:34:19;;;;;;;;;;;;;;;;;;5136303;27;19911;-48
2022/10/10 10:36:45;;;;;;;;;;;;;;;;;;5132861;27;19908;-48
2022/10/10 10:39:11;;;;;;;;;;;;;;;;;;5128628;27;19912;-49
2022/10/10 10:41:37;;;;;;;;;;;;;;;;;;5121938;27;19922;-49
2022/10/10 10:44:03;;;;;;;;;;;;;;;;;;5125022;27;20002;-56
2022/10/10 10:46:29;;;;;;;;;;;;;;;;;;5130245;27;20333;-48
2022/10/10 10:48:54;;;;;;;;;;;;;;;;;;5125705;27;19927;-47
2022/10/10 10:51:20;;;;;;;;;;;;;;;;;;5132735;27;19994;-48
2022/10/10 10:53:46;;;;;;;;;;;;;;;;;;5134125;27;19908;-48
2022/10/10 10:56:12;;;;;;;;;;;;;;;;;;5132776;27;19908;-48
2022/10/10 10:58:38;;;;;;;;;;;;;;;;;;5130648;27;19935;-48
2022/10/10 11:01:04;;;;;;;;;;;;;;;;;;5127852;27;20376;-52
2022/10/10 11:03:32;;;;;;;;;;;;;;;;;;5135478;27;19998;-54
2022/10/10 11:05:58;;;;;;;;;;;;;;;;;;5099772;27;19987;-52
2022/10/10 11:08:25;;;;;;;;;;;;;;;;;;5104636;27;19908;-49
2022/10/10 11:10:51;;;;;;;;;;;;;;;;;;5132859;27;19914;-51
2022/10/10 11:13:17;;;;;;;;;;;;;;;;;;5131106;27;20374;-51
2022/10/10 11:15:42;;;;;;;;;;;;;;;;;;5133170;27;19950;-48
2022/10/10 11:18:08;;;;;;;;;;;;;;;;;;5132554;27;19907;-52
2022/10/10 11:20:34;;;;;;;;;;;;;;;;;;5125050;27;19941;-48
2022/10/10 11:23:00;;;;;;;;;;;;;;;;;;5132435;27;19933;-57
2022/10/10 11:25:26;;;;;;;;;;;;;;;;;;5117396;27;19926;-47
2022/10/10 11:27:52;;;;;;;;;;;;;;;;;;5124175;27;19907;-52
2022/10/10 11:30:18;;;;;;;;;;;;;;;;;;5129072;27;19911;-49
2022/10/10 11:32:44;;;;;;;;;;;;;;;;;;5119368;27;19916;-47
2022/10/10 11:35:10;;;;;;;;;;;;;;;;;;5114088;27;19915;-50
2022/10/10 11:37:36;;;;;;;;;;;;;;;;;;5125389;27;19937;-51
2022/10/10 11:40:02;;;;;;;;;;;;;;;;;;5111753;27;19915;-58
2022/10/10 11:42:28;;;;;;;;;;;;;;;;;;5132111;27;19912;-52
2022/10/10 11:44:54;;;;;;;;;;;;;;;;;;5131463;27;19911;-47
2022/10/10 11:47:20;;;;;;;;;;;;;;;;;;5128473;27;19920;-50
2022/10/10 11:49:46;;;;;;;;;;;;;;;;;;5132679;27;19914;-52
2022/10/10 11:52:12;;;;;;;;;;;;;;;;;;5123605;27;19918;-51
2022/10/10 11:54:38;;;;;;;;;;;;;;;;;;5125345;27;20033;-48
2022/10/10 11:57:04;;;;;;;;;;;;;;;;;;5131400;27;19912;-54
2022/10/10 11:59:29;;;;;;;;;;;;;;;;;;5121989;27;19919;-48
2022/10/10 12:01:55;;;;;;;;;;;;;;;;;;5129987;27;19918;-52
2022/10/10 12:04:22;;;;;;;;;;;;;;;;;;5132517;27;19938;-48
2022/10/10 12:06:49;;;;;;;;;;;;;;;;;;5136539;27;20137;-53
2022/10/10 12:09:15;;;;;;;;;;;;;;;;;;5131876;27;19998;-49
2022/10/10 12:11:41;;;;;;;;;;;;;;;;;;5136300;27;20275;-48
2022/10/10 12:14:07;;;;;;;;;;;;;;;;;;5123022;27;19917;-51
2022/10/10 12:16:35;;;;;;;;;;;;;;;;;;5131628;27;19976;-47
2022/10/10 12:19:01;;;;;;;;;;;;;;;;;;5131854;27;20342;-57
2022/10/10 12:21:26;;;;;;;;;;;;;;;;;;5133728;27;19994;-50
2022/10/10 12:23:52;;;;;;;;;;;;;;;;;;5129337;27;19966;-52
2022/10/10 12:26:18;;;;;;;;;;;;;;;;;;5129789;27;19930;-48
2022/10/10 12:28:44;;;;;;;;;;;;;;;;;;5126748;28;19919;-48
2022/10/10 12:31:10;;;;;;;;;;;;;;;;;;5131019;28;20006;-49
2022/10/10 12:33:36;;;;;;;;;;;;;;;;;;5132469;28;20356;-49
2022/10/10 12:36:05;;;;;;;;;;;;;;;;;;5130849;27;19916;-56
2022/10/10 12:38:31;;;;;;;;;;;;;;;;;;5132203;28;19934;-48
2022/10/10 12:40:57;;;;;;;;;;;;;;;;;;5129867;28;20368;-49
2022/10/10 12:43:23;;;;;;;;;;;;;;;;;;5111028;28;19923;-51
2022/10/10 12:45:49;;;;;;;;;;;;;;;;;;5124542;28;20431;-51
2022/10/10 12:48:15;;;;;;;;;;;;;;;;;;5121342;27;20423;-49
2022/10/10 12:50:41;;;;;;;;;;;;;;;;;;5125931;28;19943;-47
2022/10/10 12:53:07;;;;;;;;;;;;;;;;;;5119350;28;20478;-48
2022/10/10 12:55:33;;;;;;;;;;;;;;;;;;5132048;28;19991;-47
2022/10/10 12:57:59;;;;;;;;;;;;;;;;;;5131695;28;19908;-57
2022/10/10 13:00:25;;;;;;;;;;;;;;;;;;5131941;27;19915;-49
2022/10/10 13:02:51;;;;;;;;;;;;;;;;;;5125616;27;19919;-53
2022/10/10 13:05:16;;;;;;;;;;;;;;;;;;5123201;27;19919;-54
2022/10/10 13:07:42;;;;;;;;;;;;;;;;;;5135775;27;19954;-49
2022/10/10 13:10:10;;;;;;;;;;;;;;;;;;5134417;27;19912;-52
2022/10/10 13:12:36;;;;;;;;;;;;;;;;;;5135943;27;20271;-48
2022/10/10 13:15:02;;;;;;;;;;;;;;;;;;5135497;27;19911;-60
2022/10/10 13:17:28;;;;;;;;;;;;;;;;;;5134268;27;19912;-50
2022/10/10 13:19:53;;;;;;;;;;;;;;;;;;5131449;27;19958;-48
2022/10/10 13:22:19;;;;;;;;;;;;;;;;;;5129013;27;19918;-48
2022/10/10 13:24:45;;;;;;;;;;;;;;;;;;5132195;27;19908;-53
2022/10/10 13:27:11;;;;;;;;;;;;;;;;;;5133983;27;19915;-48
2022/10/10 13:29:37;;;;;;;;;;;;;;;;;;5131313;27;19916;-50
2022/10/10 13:32:03;;;;;;;;;;;;;;;;;;5129010;27;20309;-58
2022/10/10 13:34:29;;;;;;;;;;;;;;;;;;5132669;27;19915;-52
2022/10/10 13:36:55;;;;;;;;;;;;;;;;;;5126973;27;19915;-49
2022/10/10 13:39:20;;;;;;;;;;;;;;;;;;5134796;27;19903;-49
2022/10/10 13:41:46;;;;;;;;;;;;;;;;;;5134840;27;19968;-53
2022/10/10 13:44:12;;;;;;;;;;;;;;;;;;5130902;27;20352;-51
2022/10/10 13:46:38;;;;;;;;;;;;;;;;;;5131441;27;19915;-50
2022/10/10 13:49:04;;;;;;;;;;;;;;;;;;5133943;27;19911;-53
2022/10/10 13:51:30;;;;;;;;;;;;;;;;;;5134746;27;19908;-48
2022/10/10 13:53:56;;;;;;;;;;;;;;;;;;5130235;27;19939;-49
2022/10/10 13:56:22;;;;;;;;;;;;;;;;;;5128958;27;20378;-51
2022/10/10 13:58:47;;;;;;;;;;;;;;;;;;5134749;27;20310;-51
2022/10/10 14:01:13;;;;;;;;;;;;;;;;;;5126136;27;19908;-47
2022/10/10 14:03:39;;;;;;;;;;;;;;;;;;5134931;27;20018;-50
2022/10/10 14:06:05;;;;;;;;;;;;;;;;;;5130005;27;19969;-48
2022/10/10 14:08:31;;;;;;;;;;;;;;;;;;5122846;27;19941;-48
2022/10/10 14:10:57;;;;;;;;;;;;;;;;;;5129993;27;19908;-49
2022/10/10 14:13:24;;;;;;;;;;;;;;;;;;5126182;27;19916;-52
2022/10/10 14:15:50;;;;;;;;;;;;;;;;;;5133927;27;19919;-52
2022/10/10 14:18:16;;;;;;;;;;;;;;;;;;5133709;27;20372;-49
2022/10/10 14:20:42;;;;;;;;;;;;;;;;;;5138979;27;19908;-53
2022/10/10 14:23:08;;;;;;;;;;;;;;;;;;5133730;27;19990;-51
2022/10/10 14:25:34;;;;;;;;;;;;;;;;;;5127465;27;19961;-48
2022/10/10 14:28:00;;;;;;;;;;;;;;;;;;5125336;27;19951;-56
2022/10/10 14:30:26;;;;;;;;;;;;;;;;;;5138244;27;20420;-51
2022/10/10 14:32:52;;;;;;;;;;;;;;;;;;5130198;27;19915;-52
2022/10/10 14:35:18;;;;;;;;;;;;;;;;;;5117945;27;19951;-47
2022/10/10 14:37:43;;;;;;;;;;;;;;;;;;5127488;27;20369;-51
2022/10/10 14:40:09;;;;;;;;;;;;;;;;;;5131182;27;19912;-54
2022/10/10 14:42:35;;;;;;;;;;;;;;;;;;5133817;27;20264;-48
2022/10/10 14:45:02;;;;;;;;;;;;;;;;;;5131690;27;19911;-57
2022/10/10 14:47:27;;;;;;;;;;;;;;;;;;5133460;27;19915;-50
2022/10/10 14:49:56;;;;;;;;;;;;;;;;;;5134319;27;20253;-51
2022/10/10 14:52:22;;;;;;;;;;;;;;;;;;5118936;27;19947;-50
2022/10/10 14:54:47;;;;;;;;;;;;;;;;;;5134009;27;19954;-51
2022/10/10 14:57:13;;;;;;;;;;;;;;;;;;5132706;27;19915;-48
2022/10/10 14:59:39;;;;;;;;;;;;;;;;;;5134122;27;19911;-50
2022/10/10 15:02:05;;;;;;;;;;;;;;;;;;5126041;27;19951;-49
2022/10/10 15:04:31;;;;;;;;;;;;;;;;;;5132728;27;19923;-50
2022/10/10 15:06:57;;;;;;;;;;;;;;;;;;5133298;27;19953;-52
2022/10/10 15:09:23;;;;;;;;;;;;;;;;;;5128685;27;19922;-51
2022/10/10 15:11:49;;;;;;;;;;;;;;;;;;5133351;27;19907;-50
2022/10/10 15:14:14;;;;;;;;;;;;;;;;;;5129622;27;19915;-50
2022/10/10 15:16:40;;;;;;;;;;;;;;;;;;5133188;27;19912;-51
2022/10/10 15:19:06;;;;;;;;;;;;;;;;;;5128865;27;19914;-52
2022/10/10 15:21:32;;;;;;;;;;;;;;;;;;5137445;27;19947;-49
2022/10/10 15:23:58;;;;;;;;;;;;;;;;;;5132764;27;19914;-49
2022/10/10 15:26:24;;;;;;;;;;;;;;;;;;5132271;27;19922;-50
2022/10/10 15:28:52;;;;;;;;;;;;;;;;;;5129134;27;19912;-48
2022/10/10 15:31:18;;;;;;;;;;;;;;;;;;5121682;27;19951;-48
2022/10/10 15:33:43;;;;;;;;;;;;;;;;;;5132673;27;19954;-49
2022/10/10 15:36:09;;;;;;;;;;;;;;;;;;5125197;27;20352;-51
2022/10/10 15:38:35;;;;;;;;;;;;;;;;;;5121748;27;19957;-52
2022/10/10 15:41:01;;;;;;;;;;;;;;;;;;5132059;27;19907;-56
2022/10/10 15:43:27;;;;;;;;;;;;;;;;;;5110761;28;20352;-50
2022/10/10 15:45:53;;;;;;;;;;;;;;;;;;5122810;27;19918;-51
2022/10/10 15:48:19;;;;;;;;;;;;;;;;;;5127127;27;19966;-51
2022/10/10 15:50:45;;;;;;;;;;;;;;;;;;5132541;27;19911;-48
2022/10/10 15:53:11;;;;;;;;;;;;;;;;;;5126890;27;19915;-48
2022/10/10 15:55:37;;;;;;;;;;;;;;;;;;5119124;27;19997;-53
2022/10/10 15:58:02;;;;;;;;;;;;;;;;;;5134545;27;19914;-58
2022/10/10 16:00:28;;;;;;;;;;;;;;;;;;5132691;27;19946;-52
2022/10/10 16:02:54;;;;;;;;;;;;;;;;;;5134224;27;19912;-51
2022/10/10 16:05:20;;;;;;;;;;;;;;;;;;5123528;27;20364;-51
2022/10/10 16:07:46;;;;;;;;;;;;;;;;;;5112368;28;19988;-48
2022/10/10 16:10:12;;;;;;;;;;;;;;;;;;5111966;28;19915;-49
2022/10/10 16:12:38;;;;;;;;;;;;;;;;;;5122172;27;19912;-52
2022/10/10 16:15:03;;;;;;;;;;;;;;;;;;5130911;27;19988;-58
2022/10/10 16:17:29;;;;;;;;;;;;;;;;;;5131186;27;20356;-51
2022/10/10 16:19:55;;;;;;;;;;;;;;;;;;5131777;27;19911;-48
2022/10/10 16:22:21;;;;;;;;;;;;;;;;;;5131516;27;19942;-48
2022/10/10 16:24:47;;;;;;;;;;;;;;;;;;5119503;28;19908;-51
2022/10/10 16:27:13;;;;;;;;;;;;;;;;;;5130736;28;19956;-47
2022/10/10 16:29:39;;;;;;;;;;;;;;;;;;5132724;28;19988;-49
2022/10/10 16:32:05;;;;;;;;;;;;;;;;;;5119543;27;19939;-49
2022/10/10 16:34:30;;;;;;;;;;;;;;;;;;5118466;27;20364;-52
2022/10/10 16:36:56;;;;;;;;;;;;;;;;;;5122818;27;19912;-49